Portada
METAR-TAF:

METAR-TAF

Aeropuertos :

Base Aérea de Getafe

Madrid-Getafe, España

latitud: 40-18N, longitud: 003-43W, altitud: 620 m

Observación

El informe se hizo hace 6 horas y 36 minutos, a las 21:00 UTC
Viento 6 kt del este
Temperatura 27°C
Humedad 39%
Presión 1018 hPa
Visibilidad 10 km o más
sin nubes por debajo de 1500 m y sin presencia de cumulonimbus.

METAR: LEGT 192100Z 09006KT CAVOK 27/12 Q1018

Hora: 05:36 (03:36 UTC)

Pronóstico

El informe se hizo hace 10 horas y 36 minutos, a las 17:00 UTC
Pronóstico válido del 19 a las 18 UTC al 20 a las 03 UTC
Viento 4 kt con dirección variable
Visibilidad 10 km o más
sin nubes por debajo de 1500 m y sin presencia de cumulonimbus.
Probabilidad 30% :
Temporalmente
del 19 a las 18 UTC al 19 a las 21 UTC
Viento 8 kt del sur-sureste

TAF: LEGT 191700Z 1918/2003 VRB04KT CAVOK PROB30 TEMPO 1918/1921 15008KT

Observaciones y pronósticos meteorológicos de más de 4000 aeropuertos (mensajes METAR y TAF).

Los puntos amarillos y rojos representan las estaciones disponibles.

Ponga el ratón en el punto deseado para ver el nombre de la estación.

Haga clic para ver las observaciones y los pronósticos meteorológicos.

Para cambiar el mapa : haga clic en los botones verdes con una cruz de color negro para hacer un zoom, en el botón verde con un guión para alejar o en las flechas verdes para mapas adyacentes.


METAR-TAF: